»·PEaware :: N622SB KLAX-KSAN

N622SB :: KLAX-KSAN

FLIGHT INFORMATION

Flight Status: Arrived
Operator: Privately registered:
United States
More flights under this callsign
Pilot: Simon B. (27931)
Aircraft: Unknown
(/A)
More flights by this aircraft type
Origin: KLAX Los Angeles Intl
United States
Destination: KSAN San Diego Intl-Lindbergh
United States
More flights between these airports :: More routes between these airports
Route: +LAX MZB
File this flight plan on PilotEdge
Remarks: CAT11
Altitude:
(Current/Filed)
5,500ft
Speed:
(Current/Filed)
110kts
Departed: 13-Feb-20 02:45 PM
Arrived: 13-Feb-20 04:12 PM
Distance/Time
Traveled:
95nm/1:27
Distance/Time
To Go:
Arrived

Flight Plot

Page will automatically refresh every two minutes.

Flight plan parsing failed; only flown route is shown


Map Options




Map Legend


Flown Route
Filed Route
Departure Airport
Arrival Airport
Navaid (VOR, NDB)
Fix

Horizontal Profiles

Position Reports

Time Latitude Longitude Heading Altitude Ground
Speed
13-Feb-20 14:32 33.933537 -118.393519 165 129ft 0kts
13-Feb-20 14:33 33.933536 -118.393519 165 129ft 0kts
13-Feb-20 14:34 33.933534 -118.393518 165 129ft 0kts
13-Feb-20 14:35 33.933533 -118.393518 165 129ft 0kts
13-Feb-20 14:36 33.933531 -118.393517 165 129ft 0kts
13-Feb-20 14:37 33.933530 -118.393517 165 129ft 0kts
13-Feb-20 14:38 33.933528 -118.393517 165 129ft 0kts
13-Feb-20 14:40 33.933590 -118.393536 165 129ft 0kts
13-Feb-20 14:41 33.934316 -118.393734 327 129ft 8kts
13-Feb-20 14:42 33.935539 -118.389151 84 129ft 20kts
13-Feb-20 14:43 33.936443 -118.382866 359 129ft 10kts
13-Feb-20 14:44 33.936778 -118.382939 347 129ft 0kts
13-Feb-20 14:45 33.937043 -118.388219 261 198ft 60kts
13-Feb-20 14:46 33.935359 -118.412534 265 1120ft 80kts
13-Feb-20 14:47 33.933997 -118.441758 265 1930ft 91kts
13-Feb-20 14:48 33.924077 -118.465079 173 2728ft 90kts
13-Feb-20 14:49 33.895400 -118.461860 169 3003ft 120kts
13-Feb-20 14:50 33.868584 -118.440892 142 3001ft 113kts
13-Feb-20 14:51 33.845377 -118.416842 121 3174ft 101kts
13-Feb-20 14:52 33.833627 -118.387010 112 3703ft 100kts
13-Feb-20 14:53 33.822195 -118.355408 112 4439ft 99kts
13-Feb-20 14:54 33.811800 -118.326541 112 5226ft 89kts
13-Feb-20 14:55 33.799022 -118.296703 118 5505ft 117kts
13-Feb-20 15:00 33.933533 -118.393518 342 129ft 0kts
13-Feb-20 15:02 33.933538 -118.393519 342 129ft 0kts
13-Feb-20 15:02 33.933541 -118.393520 342 129ft 0kts
13-Feb-20 15:03 33.933545 -118.393522 342 129ft 0kts
13-Feb-20 15:04 33.933549 -118.393523 342 129ft 0kts
13-Feb-20 15:05 33.933810 -118.393619 342 129ft 7kts
13-Feb-20 15:06 33.935561 -118.388887 82 129ft 25kts
13-Feb-20 15:07 33.936650 -118.382909 348 129ft 0kts
13-Feb-20 15:08 33.937502 -118.383734 264 129ft 10kts
13-Feb-20 15:09 33.934997 -118.405279 262 685ft 81kts
13-Feb-20 15:10 33.934488 -118.432250 265 1748ft 77kts
13-Feb-20 15:11 33.934971 -118.458081 264 2813ft 80kts
13-Feb-20 15:12 33.912993 -118.452549 146 3002ft 116kts
13-Feb-20 15:13 33.886061 -118.432348 146 3004ft 112kts
13-Feb-20 15:14 33.859638 -118.412563 146 3007ft 112kts
13-Feb-20 15:15 33.833148 -118.392753 146 3011ft 112kts
13-Feb-20 15:16 33.805872 -118.372310 146 3004ft 115kts
13-Feb-20 15:17 33.787993 -118.345464 106 3393ft 104kts
13-Feb-20 15:18 33.778949 -118.309479 106 3504ft 118kts
13-Feb-20 15:19 33.768799 -118.271701 110 3502ft 118kts
13-Feb-20 15:20 33.751084 -118.238642 134 3585ft 116kts
13-Feb-20 15:21 33.730415 -118.215601 136 4251ft 89kts
13-Feb-20 15:22 33.713048 -118.197478 135 4921ft 76kts
13-Feb-20 15:23 33.697795 -118.181645 135 5502ft 76kts
13-Feb-20 15:24 33.677866 -118.159702 136 5501ft 109kts
13-Feb-20 15:25 33.654758 -118.134675 136 5494ft 112kts
13-Feb-20 15:26 33.631392 -118.109531 137 5494ft 113kts
13-Feb-20 15:27 33.607696 -118.084755 137 5495ft 112kts
13-Feb-20 15:28 33.584375 -118.059687 136 5496ft 113kts
13-Feb-20 15:29 33.560895 -118.034409 137 5499ft 112kts
13-Feb-20 15:30 33.537286 -118.009703 137 5500ft 113kts
13-Feb-20 15:31 33.514746 -117.986174 136 5747ft 99kts
13-Feb-20 15:32 33.494887 -117.964782 136 6138ft 94kts
13-Feb-20 15:33 33.475454 -117.943729 136 6533ft 92kts
13-Feb-20 15:34 33.456448 -117.923458 137 6924ft 91kts
13-Feb-20 15:35 33.437583 -117.903603 137 7322ft 89kts
13-Feb-20 15:36 33.417935 -117.882719 137 7508ft 104kts
13-Feb-20 15:37 33.395306 -117.858449 137 7502ft 111kts
13-Feb-20 15:38 33.372140 -117.833539 137 7501ft 112kts
13-Feb-20 15:39 33.359055 -117.800563 110 7497ft 112kts
13-Feb-20 15:40 33.344048 -117.768202 127 7501ft 111kts
13-Feb-20 15:41 33.323595 -117.740076 133 7501ft 111kts
13-Feb-20 15:42 33.301135 -117.714265 137 7501ft 111kts
13-Feb-20 15:43 33.277681 -117.689846 139 7501ft 112kts
13-Feb-20 15:44 33.253708 -117.666184 140 7499ft 112kts
13-Feb-20 15:45 33.229483 -117.642760 140 7500ft 112kts
13-Feb-20 15:46 33.204884 -117.619730 141 7500ft 112kts
13-Feb-20 15:47 33.180387 -117.596840 141 7501ft 112kts
13-Feb-20 15:48 33.155554 -117.574115 144 7501ft 113kts
13-Feb-20 15:49 33.130087 -117.552120 141 7508ft 112kts
13-Feb-20 15:50 33.105406 -117.528902 141 7502ft 113kts
13-Feb-20 15:51 33.081549 -117.504614 136 7499ft 113kts
13-Feb-20 15:52 33.058788 -117.478748 132 7507ft 111kts
13-Feb-20 15:53 33.059775 -117.440071 79 7124ft 128kts
13-Feb-20 15:54 33.068343 -117.397863 77 6330ft 130kts
13-Feb-20 15:55 33.069941 -117.355054 106 5467ft 128kts
13-Feb-20 15:56 33.058973 -117.320609 141 5480ft 102kts
13-Feb-20 15:57 33.030507 -117.310489 160 5502ft 110kts
13-Feb-20 15:58 33.001022 -117.298928 160 5487ft 112kts
13-Feb-20 15:59 32.969708 -117.283953 163 5011ft 125kts
13-Feb-20 16:00 32.936737 -117.273636 164 4508ft 120kts
13-Feb-20 16:01 32.904285 -117.263619 164 4009ft 120kts
13-Feb-20 16:02 32.871956 -117.253593 164 3525ft 119kts
13-Feb-20 16:03 32.842219 -117.243974 163 3504ft 102kts
13-Feb-20 16:04 32.814904 -117.232434 138 3312ft 111kts
13-Feb-20 16:05 32.787605 -117.213091 150 2632ft 116kts
13-Feb-20 16:06 32.760066 -117.197754 139 1489ft 100kts
13-Feb-20 16:07 32.751141 -117.172295 108 1147ft 74kts
13-Feb-20 16:08 32.739459 -117.153094 183 1221ft 71kts
13-Feb-20 16:09 32.727628 -117.165363 284 492ft 63kts
13-Feb-20 16:10 32.731988 -117.183200 288 24ft 46kts
13-Feb-20 16:11 32.732348 -117.187290 196 18ft 0kts
13-Feb-20 16:12 32.732345 -117.187291 196 18ft 0kts
13-Feb-20 16:13 32.732275 -117.189898 194 18ft 8kts
13-Feb-20 16:14 32.731829 -117.189779 107 18ft 0kts

Navigation Log

Ident Type
Flight plan parsing failed, navigation log unavailable